Time;durP1;ratioP1;P1;durP2;ratioP2;P2;SDS_P1;SDS_P2;PMS_P1;PMS_P2;Temp;Humidity;BMP_temperature;BMP_pressure;BME280_temperature;BME280_humidity;BME280_pressure;Samples;Min_cycle;Max_cycle;Signal;HPM_P1;HPM_P2
2022/02/26 00:00:39;;;;;;;5.65;2.97;;;;;;;-2.42;100.00;94125.00;2103978;28;20069;-81
2022/02/26 00:01:40;;;;;;;5.32;3.20;;;;;;;-2.38;100.00;94133.78;2099192;28;20421;-81
2022/02/26 00:02:41;;;;;;;5.00;2.70;;;;;;;-2.41;100.00;94127.34;2101704;28;20057;-81
2022/02/26 00:03:42;;;;;;;4.32;2.80;;;;;;;-2.34;100.00;94126.84;2097789;28;20026;-82
2022/02/26 00:04:43;;;;;;;8.43;3.10;;;;;;;-2.26;100.00;94133.19;2108336;28;20472;-82
2022/02/26 00:05:45;;;;;;;4.93;3.08;;;;;;;-2.21;100.00;94139.00;2091952;28;20108;-81
2022/02/26 00:06:46;;;;;;;5.13;2.80;;;;;;;-2.18;100.00;94127.16;2106379;28;20028;-82
2022/02/26 00:07:47;;;;;;;4.10;3.28;;;;;;;-2.21;100.00;94131.16;2111408;28;20115;-80
2022/02/26 00:08:49;;;;;;;4.43;2.65;;;;;;;-2.15;100.00;94129.94;2092573;28;20462;-79
2022/02/26 00:09:50;;;;;;;6.40;3.00;;;;;;;-2.03;100.00;94132.66;2111399;28;20174;-80
2022/02/26 00:10:51;;;;;;;5.70;3.33;;;;;;;-2.08;100.00;94134.69;2101253;28;20024;-82
2022/02/26 00:11:52;;;;;;;3.17;2.50;;;;;;;-1.94;100.00;94129.28;2097316;28;20034;-82
2022/02/26 00:12:54;;;;;;;7.07;2.83;;;;;;;-1.85;100.00;94124.78;2097807;28;20109;-81
2022/02/26 00:13:55;;;;;;;5.85;2.72;;;;;;;-1.82;100.00;94124.94;2105985;28;20062;-83
2022/02/26 00:14:56;;;;;;;4.43;2.55;;;;;;;-1.86;100.00;94129.25;2097603;28;20029;-81
2022/02/26 00:15:59;;;;;;;7.80;3.00;;;;;;;-1.87;100.00;94138.19;2106701;28;20114;-82
2022/02/26 00:17:00;;;;;;;7.57;2.80;;;;;;;-1.91;100.00;94131.28;2101535;28;20021;-82
2022/02/26 00:18:03;;;;;;;4.78;3.10;;;;;;;-1.84;100.00;94132.34;2097731;28;20039;-82
2022/02/26 00:19:04;;;;;;;6.68;3.28;;;;;;;-1.89;100.00;94131.72;2097871;28;20024;-80
2022/02/26 00:20:06;;;;;;;5.28;3.00;;;;;;;-1.87;100.00;94127.72;2091752;28;20183;-82
2022/02/26 00:21:08;;;;;;;4.90;2.60;;;;;;;-1.92;100.00;94137.59;2106526;28;20472;-81
2022/02/26 00:22:09;;;;;;;5.00;3.08;;;;;;;-1.93;100.00;94133.41;2106538;28;20030;-82
2022/02/26 00:23:10;;;;;;;5.10;3.35;;;;;;;-1.88;100.00;94138.53;2106410;28;20020;-81
2022/02/26 00:24:11;;;;;;;3.28;2.80;;;;;;;-1.90;100.00;94140.66;2089406;28;20394;-82
2022/02/26 00:25:12;;;;;;;8.65;3.17;;;;;;;-1.87;100.00;94134.81;2085917;28;20032;-80
2022/02/26 00:26:13;;;;;;;4.60;2.80;;;;;;;-1.85;100.00;94137.88;2098110;28;20131;-80
2022/02/26 00:27:14;;;;;;;6.57;3.92;;;;;;;-1.80;100.00;94137.72;2098031;28;20024;-81
2022/02/26 00:28:15;;;;;;;4.90;3.00;;;;;;;-1.82;100.00;94137.25;2106565;27;20020;-82
2022/02/26 00:29:34;;;;;;;6.38;3.58;;;;;;;-1.79;100.00;94139.28;2110325;28;20027;-82
2022/02/26 00:30:35;;;;;;;3.97;2.97;;;;;;;-1.80;100.00;94141.13;2102930;28;20116;-80
2022/02/26 00:31:36;;;;;;;5.20;3.00;;;;;;;-1.73;100.00;94138.00;2106288;28;20514;-81
2022/02/26 00:32:37;;;;;;;4.60;2.92;;;;;;;-1.69;100.00;94140.78;2114563;27;20769;-83
2022/02/26 00:33:38;;;;;;;5.85;3.22;;;;;;;-1.72;100.00;94144.00;2114655;28;20027;-82
2022/02/26 00:34:39;;;;;;;3.45;3.00;;;;;;;-1.77;100.00;94142.34;2112630;28;20053;-81
2022/02/26 00:35:41;;;;;;;3.20;2.88;;;;;;;-1.77;100.00;94137.84;2108226;28;20088;-80
2022/02/26 00:36:43;;;;;;;5.75;3.20;;;;;;;-1.72;100.00;94139.53;2106466;28;20077;-82
2022/02/26 00:37:44;;;;;;;3.78;2.53;;;;;;;-1.78;100.00;94138.19;2106403;28;20027;-82
2022/02/26 00:38:45;;;;;;;4.35;2.83;;;;;;;-1.81;100.00;94138.78;2106259;28;20028;-81
2022/02/26 00:39:46;;;;;;;4.60;2.70;;;;;;;-1.70;100.00;94139.25;2114641;28;20077;-82
2022/02/26 00:40:46;;;;;;;3.08;2.33;;;;;;;-1.66;100.00;94140.16;2114735;28;20462;-81
2022/02/26 00:41:48;;;;;;;3.42;2.90;;;;;;;-1.65;100.00;94146.94;2105960;28;20028;-81
2022/02/26 00:42:49;;;;;;;5.10;2.75;;;;;;;-1.64;100.00;94153.72;2106557;28;20047;-80
2022/02/26 00:43:50;;;;;;;5.82;2.85;;;;;;;-1.56;100.00;94142.44;2111161;28;20016;-82
2022/02/26 00:44:51;;;;;;;4.25;2.80;;;;;;;-1.61;100.00;94142.63;2097803;28;20135;-81
2022/02/26 00:45:53;;;;;;;3.20;2.90;;;;;;;-1.70;100.00;94149.72;2097853;28;20402;-81
2022/02/26 00:46:54;;;;;;;2.97;2.75;;;;;;;-1.62;100.00;94152.34;2089481;28;20025;-82
2022/02/26 00:47:56;;;;;;;6.15;2.80;;;;;;;-1.58;100.00;94150.63;2097527;28;20487;-81
2022/02/26 00:50:17;;;;;;;3.70;2.58;;;;;;;-1.68;100.00;94148.31;2117057;27;20046;-82
2022/02/26 00:51:18;;;;;;;3.78;2.65;;;;;;;-1.53;100.00;94150.44;2105386;28;20031;-81
2022/02/26 00:52:29;;;;;;;5.93;2.88;;;;;;;-1.31;100.00;94151.31;2094469;28;20783;-81
2022/02/26 00:53:30;;;;;;;5.28;3.22;;;;;;;-1.57;100.00;94157.41;2093385;28;20543;-81
2022/02/26 00:54:31;;;;;;;5.03;2.85;;;;;;;-1.57;100.00;94154.00;2097668;28;20020;-81
2022/02/26 00:55:32;;;;;;;5.10;3.08;;;;;;;-1.56;100.00;94164.19;2105894;28;20103;-82
2022/02/26 00:56:34;;;;;;;5.65;3.33;;;;;;;-1.57;100.00;94154.78;2105961;28;20020;-80
2022/02/26 00:57:35;;;;;;;7.40;3.60;;;;;;;-1.58;100.00;94168.19;2097649;28;20025;-82
2022/02/26 00:58:36;;;;;;;7.32;3.50;;;;;;;-1.52;100.00;94162.47;2089504;28;20029;-82
2022/02/26 00:59:37;;;;;;;5.45;3.15;;;;;;;-1.51;100.00;94163.22;2092387;28;20025;-82
2022/02/26 01:00:40;;;;;;;9.38;3.65;;;;;;;-1.55;100.00;94164.94;2095839;28;20039;-82
2022/02/26 01:01:41;;;;;;;4.68;3.08;;;;;;;-1.42;100.00;94163.22;2102235;28;20028;-81
2022/02/26 01:02:42;;;;;;;7.38;3.42;;;;;;;-1.42;100.00;94166.59;2097797;28;20120;-81
2022/02/26 01:03:43;;;;;;;4.65;3.33;;;;;;;-1.36;100.00;94167.19;2106109;28;20502;-83
2022/02/26 01:04:44;;;;;;;4.40;3.38;;;;;;;-1.30;100.00;94166.72;2106103;28;20035;-82
2022/02/26 01:05:45;;;;;;;8.07;3.67;;;;;;;-1.32;100.00;94163.66;2106141;28;20089;-82
2022/02/26 01:06:46;;;;;;;5.75;3.13;;;;;;;-1.30;100.00;94166.72;2106066;28;20107;-81
2022/02/26 01:07:47;;;;;;;5.65;3.25;;;;;;;-1.34;100.00;94163.19;2101910;28;20024;-82
2022/02/26 01:08:48;;;;;;;3.45;2.90;;;;;;;-1.32;100.00;94165.47;2106043;28;20027;-81
2022/02/26 01:09:49;;;;;;;5.25;3.25;;;;;;;-1.31;100.00;94167.03;2097822;28;20825;-81
2022/02/26 01:10:50;;;;;;;5.40;3.50;;;;;;;-1.40;100.00;94166.31;2106111;28;20123;-80
2022/02/26 01:11:51;;;;;;;5.10;3.80;;;;;;;-1.36;100.00;94167.19;2105655;28;20031;-81
2022/02/26 01:12:52;;;;;;;3.60;2.92;;;;;;;-1.42;100.00;94168.44;2105969;28;20106;-82
2022/02/26 01:13:53;;;;;;;6.22;3.60;;;;;;;-1.37;100.00;94170.91;2114353;28;20023;-81
2022/02/26 01:14:54;;;;;;;6.25;2.90;;;;;;;-1.48;100.00;94173.09;2097802;28;20021;-82
2022/02/26 01:15:55;;;;;;;4.32;3.00;;;;;;;-1.45;100.00;94171.69;2102038;28;20020;-80
2022/02/26 01:16:56;;;;;;;6.97;3.40;;;;;;;-1.43;100.00;94167.69;2097532;28;20074;-81
2022/02/26 01:17:57;;;;;;;4.90;3.63;;;;;;;-1.41;100.00;94172.59;2097749;28;20032;-81
2022/02/26 01:18:58;;;;;;;7.63;3.83;;;;;;;-1.43;100.00;94174.78;2097293;28;20020;-81
2022/02/26 01:19:59;;;;;;;6.90;3.90;;;;;;;-1.41;100.00;94168.13;2089376;28;20442;-82
2022/02/26 01:21:09;;;;;;;8.90;3.65;;;;;;;-1.33;100.00;94171.81;2097524;28;20405;-81
2022/02/26 01:22:11;;;;;;;6.22;3.90;;;;;;;-1.32;100.00;94171.50;2090637;28;20170;-81
2022/02/26 01:23:12;;;;;;;5.07;3.70;;;;;;;-1.31;100.00;94177.53;2097795;28;20043;-82
2022/02/26 01:24:13;;;;;;;7.20;4.03;;;;;;;-1.34;100.00;94178.91;2105921;28;20071;-81
2022/02/26 01:25:14;;;;;;;4.55;3.88;;;;;;;-1.30;100.00;94171.19;2114336;28;20047;-81
2022/02/26 01:26:19;;;;;;;9.13;4.40;;;;;;;-1.22;100.00;94174.88;2105622;28;20031;-81
2022/02/26 01:27:20;;;;;;;7.95;5.10;;;;;;;-1.24;100.00;94162.06;2104641;27;20019;-81
2022/02/26 01:28:21;;;;;;;6.70;4.15;;;;;;;-1.33;100.00;94164.72;2098224;28;20036;-81
2022/02/26 01:29:22;;;;;;;6.03;4.50;;;;;;;-1.31;100.00;94167.03;2105950;28;20524;-82
2022/02/26 01:30:23;;;;;;;8.82;3.97;;;;;;;-1.37;100.00;94163.03;2105930;28;20036;-82
2022/02/26 01:31:24;;;;;;;6.03;3.97;;;;;;;-1.36;100.00;94161.94;2097476;28;20480;-81
2022/02/26 01:32:25;;;;;;;7.07;4.20;;;;;;;-1.41;100.00;94173.38;2089163;28;20192;-82
2022/02/26 01:33:26;;;;;;;6.88;4.22;;;;;;;-1.41;100.00;94176.00;2081053;28;20029;-82
2022/02/26 01:34:27;;;;;;;7.75;4.05;;;;;;;-1.44;100.00;94170.63;2097318;28;20020;-82
2022/02/26 01:35:28;;;;;;;8.73;4.07;;;;;;;-1.50;100.00;94174.50;2106142;28;20039;-81
2022/02/26 01:36:29;;;;;;;6.45;3.88;;;;;;;-1.57;100.00;94165.25;2105640;28;20110;-80
2022/02/26 01:37:30;;;;;;;8.77;5.10;;;;;;;-1.39;100.00;94171.22;2097536;28;20059;-81
2022/02/26 01:38:31;;;;;;;9.10;3.90;;;;;;;-1.40;100.00;94174.94;2097635;28;20024;-82
2022/02/26 01:39:32;;;;;;;6.18;4.32;;;;;;;-1.41;100.00;94176.00;2097608;28;20147;-81
2022/02/26 01:40:33;;;;;;;7.25;4.72;;;;;;;-1.56;100.00;94176.50;2097472;28;20071;-81
2022/02/26 01:41:35;;;;;;;10.13;4.60;;;;;;;-1.58;100.00;94176.84;2100369;28;20024;-80
2022/02/26 01:42:36;;;;;;;10.05;4.28;;;;;;;-1.56;100.00;94177.28;2097359;28;20020;-80
2022/02/26 01:43:37;;;;;;;6.65;4.22;;;;;;;-1.61;100.00;94176.69;2089192;28;20025;-80
2022/02/26 01:44:45;;;;;;;7.03;4.97;;;;;;;-1.49;100.00;94168.16;2100499;28;20081;-81
2022/02/26 01:45:46;;;;;;;11.82;5.20;;;;;;;-1.54;100.00;94180.38;2115235;28;20472;-81
2022/02/26 01:46:47;;;;;;;7.70;5.10;;;;;;;-1.57;100.00;94182.84;2114117;28;20114;-83
2022/02/26 01:47:48;;;;;;;8.75;4.45;;;;;;;-1.56;100.00;94174.66;2114320;28;20027;-83
2022/02/26 01:48:50;;;;;;;7.43;4.25;;;;;;;-1.57;100.00;94177.59;2114317;27;20047;-79
2022/02/26 01:49:51;;;;;;;11.10;5.03;;;;;;;-1.62;100.00;94175.16;2114272;27;20031;-82
2022/02/26 01:50:52;;;;;;;9.02;4.75;;;;;;;-1.69;100.00;94172.22;2105840;28;20169;-81
2022/02/26 01:51:54;;;;;;;8.10;4.70;;;;;;;-1.77;100.00;94171.94;2114184;27;20476;-83
2022/02/26 01:52:58;;;;;;;6.03;4.47;;;;;;;-1.69;100.00;94173.00;2113606;28;20019;-80
2022/02/26 01:53:59;;;;;;;7.88;4.50;;;;;;;-1.70;100.00;94175.94;2104078;28;20326;-80
2022/02/26 01:55:00;;;;;;;6.25;4.60;;;;;;;-1.69;100.00;94170.38;2097412;28;20488;-80
2022/02/26 01:56:04;;;;;;;7.32;4.70;;;;;;;-1.74;100.00;94172.41;2105863;28;20024;-81
2022/02/26 01:57:06;;;;;;;9.07;4.47;;;;;;;-1.66;100.00;94176.84;2097850;28;20477;-82
2022/02/26 01:58:07;;;;;;;5.07;4.30;;;;;;;-1.74;100.00;94170.53;2089390;28;20029;-83
2022/02/26 01:59:08;;;;;;;9.88;4.57;;;;;;;-1.75;100.00;94174.25;2089021;28;20029;-82
2022/02/26 02:00:11;;;;;;;10.57;4.60;;;;;;;-1.73;100.00;94168.69;2097302;28;20067;-81
2022/02/26 02:01:12;;;;;;;9.55;4.45;;;;;;;-1.72;100.00;94183.31;2100197;28;20032;-81
2022/02/26 02:02:13;;;;;;;6.40;4.95;;;;;;;-1.75;100.00;94170.88;2105512;28;20042;-81
2022/02/26 02:03:14;;;;;;;7.90;4.47;;;;;;;-1.80;100.00;94174.41;2105654;28;20081;-81
2022/02/26 02:04:15;;;;;;;7.85;4.75;;;;;;;-1.82;100.00;94166.09;2113967;28;20031;-83
2022/02/26 02:05:16;;;;;;;9.68;5.10;;;;;;;-1.80;100.00;94166.53;2105588;28;20353;-81
2022/02/26 02:06:17;;;;;;;7.50;4.82;;;;;;;-1.79;100.00;94165.47;2094176;28;20069;-82
2022/02/26 02:07:19;;;;;;;8.15;4.75;;;;;;;-1.83;100.00;94170.56;2095188;28;20116;-81
2022/02/26 02:08:20;;;;;;;9.20;5.35;;;;;;;-1.83;100.00;94170.56;2094011;28;20473;-82
2022/02/26 02:09:21;;;;;;;7.43;4.43;;;;;;;-1.87;100.00;94169.63;2105864;28;20023;-81
2022/02/26 02:11:33;;;;;;;;;;;;;;;-2.01;100.00;94170.91;2148389;27;20117;-79
2022/02/26 02:12:42;;;;;;;7.22;4.57;;;;;;;-2.08;100.00;94168.75;2129936;27;19911;-80
2022/02/26 02:13:43;;;;;;;8.60;4.88;;;;;;;-2.16;100.00;94174.75;2123710;27;20065;-80
2022/02/26 02:14:45;;;;;;;8.52;4.63;;;;;;;-2.21;100.00;94170.44;2129756;27;20019;-80
2022/02/26 02:15:46;;;;;;;9.57;5.00;;;;;;;-2.19;100.00;94167.53;2129907;27;20026;-80
2022/02/26 02:16:47;;;;;;;7.65;4.65;;;;;;;-2.09;100.00;94167.97;2121427;27;20027;-80
2022/02/26 02:17:48;;;;;;;6.82;4.80;;;;;;;-2.07;100.00;94168.41;2128688;27;20230;-81
2022/02/26 02:18:49;;;;;;;11.48;4.82;;;;;;;-2.20;100.00;94173.81;2121454;28;20399;-80
2022/02/26 02:19:50;;;;;;;9.00;4.72;;;;;;;-2.30;100.00;94173.06;2112942;28;20061;-81
2022/02/26 02:20:52;;;;;;;8.23;4.63;;;;;;;-2.35;100.00;94177.69;2121157;28;20030;-80
2022/02/26 02:21:53;;;;;;;7.78;4.60;;;;;;;-2.37;100.00;94164.13;2112975;27;20024;-81
2022/02/26 02:22:54;;;;;;;11.75;5.53;;;;;;;-2.37;100.00;94175.38;2125095;27;20455;-80
2022/02/26 02:23:55;;;;;;;5.90;4.40;;;;;;;-2.35;100.00;94173.22;2119095;28;20110;-80
2022/02/26 02:24:56;;;;;;;8.85;4.97;;;;;;;-2.37;100.00;94169.34;2121431;27;20511;-79
2022/02/26 02:26:03;;;;;;;9.77;5.13;;;;;;;-2.32;100.00;94167.38;2129851;27;20104;-80
2022/02/26 02:27:04;;;;;;;8.48;4.78;;;;;;;-2.31;100.00;94168.13;2129809;27;20325;-80
2022/02/26 02:28:07;;;;;;;5.50;4.50;;;;;;;-2.38;100.00;94173.06;2121411;27;20020;-81
2022/02/26 02:29:08;;;;;;;7.18;4.50;;;;;;;-2.45;100.00;94170.91;2121670;27;20127;-81
2022/02/26 02:30:10;;;;;;;7.25;4.68;;;;;;;-2.38;100.00;94170.44;2112890;28;20051;-81
2022/02/26 02:31:11;;;;;;;7.47;4.30;;;;;;;-2.47;100.00;94165.19;2104766;28;20059;-80
2022/02/26 02:32:13;;;;;;;6.80;4.57;;;;;;;-2.41;100.00;94171.84;2112812;27;20491;-80
2022/02/26 02:33:14;;;;;;;8.95;4.65;;;;;;;-2.48;100.00;94173.38;2121309;27;20020;-81
2022/02/26 02:34:16;;;;;;;8.20;4.95;;;;;;;-2.58;100.00;94169.22;2113013;28;20020;-80
2022/02/26 02:35:37;;;;;;;5.80;4.30;;;;;;;-2.64;100.00;94170.41;2121390;27;20027;-80
2022/02/26 02:36:43;;;;;;;6.32;4.35;;;;;;;-2.62;100.00;94165.66;2129778;27;20027;-81
2022/02/26 02:37:43;;;;;;;6.57;4.60;;;;;;;-2.67;100.00;94161.34;2122102;27;20015;-80
2022/02/26 02:38:45;;;;;;;6.95;3.75;;;;;;;-2.72;100.00;94164.13;2123867;27;20111;-80
2022/02/26 02:39:46;;;;;;;6.18;4.00;;;;;;;-2.74;100.00;94165.47;2129995;27;20024;-81
2022/02/26 02:40:48;;;;;;;7.28;4.30;;;;;;;-2.79;100.00;94164.56;2129925;27;20027;-81
2022/02/26 02:41:49;;;;;;;6.28;3.95;;;;;;;-2.78;100.00;94173.16;2121280;27;20090;-80
2022/02/26 02:42:53;;;;;;;4.78;3.58;;;;;;;-2.90;100.00;94176.38;2112652;28;20166;-82
2022/02/26 02:43:54;;;;;;;8.52;4.55;;;;;;;-2.93;100.00;94168.38;2113485;27;20016;-82
2022/02/26 02:44:54;;;;;;;6.60;4.18;;;;;;;-2.92;100.00;94169.91;2121162;28;20027;-81
2022/02/26 02:45:57;;;;;;;8.88;4.20;;;;;;;-2.96;100.00;94168.97;2112730;28;20020;-81
2022/02/26 02:46:58;;;;;;;9.77;4.70;;;;;;;-3.02;100.00;94164.97;2130049;27;20499;-81
2022/02/26 02:48:00;;;;;;;5.03;4.13;;;;;;;-3.00;100.00;94168.03;2129684;27;20439;-82
2022/02/26 02:49:00;;;;;;;4.40;3.83;;;;;;;-3.07;100.00;94168.50;2121107;27;20035;-83
2022/02/26 02:50:02;;;;;;;7.20;4.07;;;;;;;-3.16;100.00;94172.91;2121295;27;20030;-83
2022/02/26 02:51:03;;;;;;;6.47;4.10;;;;;;;-3.13;100.00;94172.31;2112556;28;20023;-82
2022/02/26 02:52:05;;;;;;;8.35;4.20;;;;;;;-3.14;100.00;94178.63;2104388;28;20028;-82
2022/02/26 02:53:06;;;;;;;7.97;4.32;;;;;;;-3.12;100.00;94172.00;2112834;27;20015;-83
2022/02/26 02:54:07;;;;;;;7.95;4.40;;;;;;;-3.07;100.00;94171.13;2130828;27;20023;-82
2022/02/26 02:55:09;;;;;;;5.80;3.85;;;;;;;-3.09;100.00;94170.63;2112792;28;20472;-83
2022/02/26 02:56:10;;;;;;;8.77;4.55;;;;;;;-3.03;100.00;94177.25;2112689;28;20138;-82
2022/02/26 02:57:11;;;;;;;6.88;4.13;;;;;;;-3.12;100.00;94181.69;2112443;28;20024;-82
2022/02/26 02:58:12;;;;;;;7.75;3.70;;;;;;;-3.10;100.00;94177.72;2104274;28;20028;-83
2022/02/26 02:59:13;;;;;;;7.78;4.18;;;;;;;-3.13;100.00;94172.31;2104222;28;20144;-83
2022/02/26 03:00:15;;;;;;;5.68;4.38;;;;;;;-3.13;100.00;94175.69;2117551;27;20020;-83
2022/02/26 03:01:16;;;;;;;6.55;4.70;;;;;;;-3.10;100.00;94177.72;2125353;27;20045;-83
2022/02/26 03:02:17;;;;;;;5.97;4.30;;;;;;;-3.11;100.00;94176.19;2120933;27;20480;-83
2022/02/26 03:03:18;;;;;;;6.57;3.95;;;;;;;-3.04;100.00;94173.88;2129523;27;20111;-82
2022/02/26 03:04:19;;;;;;;7.38;4.40;;;;;;;-3.02;100.00;94167.59;2129711;27;20019;-83
2022/02/26 03:05:21;;;;;;;8.77;4.00;;;;;;;-3.02;100.00;94178.81;2112590;28;20432;-83
2022/02/26 03:06:26;;;;;;;6.60;4.25;;;;;;;-3.02;100.00;94180.66;2104283;28;20127;-83
2022/02/26 03:07:27;;;;;;;10.38;4.10;;;;;;;-2.99;100.00;94174.81;2104875;28;20059;-82
2022/02/26 03:08:28;;;;;;;4.55;3.90;;;;;;;-3.07;100.00;94176.34;2104311;28;20024;-82
2022/02/26 03:09:29;;;;;;;5.30;4.00;;;;;;;-3.07;100.00;94179.72;2112394;28;20024;-83
2022/02/26 03:10:30;;;;;;;6.15;4.07;;;;;;;-3.07;100.00;94184.97;2104152;28;20556;-83
2022/02/26 03:11:31;;;;;;;8.75;4.13;;;;;;;-3.04;100.00;94189.56;2112445;28;20085;-82
2022/02/26 03:12:32;;;;;;;6.43;4.03;;;;;;;-2.86;100.00;94184.38;2120951;28;20049;-83
2022/02/26 03:13:34;;;;;;;6.18;4.10;;;;;;;-2.79;100.00;94177.63;2112504;28;20187;-83
2022/02/26 03:14:39;;;;;;;4.22;3.78;;;;;;;-2.74;100.00;94178.56;2104986;28;20016;-84
2022/02/26 03:15:47;;;;;;;8.65;4.30;;;;;;;-2.71;100.00;94180.59;2096313;28;20400;-82
2022/02/26 03:16:48;;;;;;;7.28;4.65;;;;;;;-2.67;100.00;94181.50;2097719;28;20052;-83
2022/02/26 03:17:52;;;;;;;8.82;4.32;;;;;;;-2.66;100.00;94181.19;2095738;28;20017;-83
2022/02/26 03:18:53;;;;;;;8.00;4.30;;;;;;;-2.75;100.00;94190.13;2096857;28;20028;-82
2022/02/26 03:19:54;;;;;;;7.60;4.00;;;;;;;-2.81;100.00;94187.66;2095691;28;20021;-82
2022/02/26 03:20:55;;;;;;;4.47;3.65;;;;;;;-2.87;100.00;94188.84;2095667;28;20020;-83
2022/02/26 03:21:56;;;;;;;7.20;3.95;;;;;;;-2.85;100.00;94194.56;2095524;28;20029;-82
2022/02/26 03:22:57;;;;;;;7.95;3.95;;;;;;;-2.83;100.00;94192.41;2098232;28;20118;-84
2022/02/26 03:23:59;;;;;;;8.80;3.90;;;;;;;-2.77;100.00;94190.41;2098165;28;20484;-84
2022/02/26 03:25:00;;;;;;;5.15;4.15;;;;;;;-2.67;100.00;94187.50;2098138;28;20030;-82
2022/02/26 03:26:01;;;;;;;8.38;4.07;;;;;;;-2.65;100.00;94184.56;2090089;28;20020;-82
2022/02/26 03:27:02;;;;;;;9.30;4.30;;;;;;;-2.65;100.00;94187.97;2098381;28;20025;-83
2022/02/26 03:28:03;;;;;;;5.78;3.85;;;;;;;-2.64;100.00;94183.50;2098279;28;20036;-82
2022/02/26 03:29:07;;;;;;;7.05;4.03;;;;;;;-2.68;100.00;94183.34;2083269;28;20514;-81
2022/02/26 03:30:09;;;;;;;7.55;4.25;;;;;;;-2.60;100.00;94184.44;2090602;28;20041;-82
2022/02/26 03:31:10;;;;;;;5.10;4.15;;;;;;;-2.72;100.00;94187.66;2081992;28;20029;-83
2022/02/26 03:32:11;;;;;;;6.90;4.00;;;;;;;-2.74;100.00;94192.41;2090055;28;20517;-83
2022/02/26 03:33:12;;;;;;;5.68;3.70;;;;;;;-2.80;100.00;94185.78;2089893;28;20138;-83
2022/02/26 03:34:14;;;;;;;3.88;3.58;;;;;;;-2.72;100.00;94200.75;2081858;28;20055;-84
2022/02/26 03:35:15;;;;;;;7.47;3.85;;;;;;;-2.78;100.00;94196.72;2090244;28;20021;-82
2022/02/26 03:36:16;;;;;;;9.10;4.18;;;;;;;-2.69;100.00;94194.88;2103653;28;20396;-84
2022/02/26 03:37:17;;;;;;;5.80;3.80;;;;;;;-2.72;100.00;94192.91;2115116;28;20069;-81
2022/02/26 03:38:18;;;;;;;4.20;3.58;;;;;;;-2.65;100.00;94195.03;2090229;28;20029;-82
2022/02/26 03:39:19;;;;;;;7.43;4.45;;;;;;;-2.60;100.00;94202.75;2097233;28;20024;-83
2022/02/26 03:40:21;;;;;;;5.82;4.13;;;;;;;-2.60;100.00;94195.66;2105618;28;20066;-82
2022/02/26 03:41:22;;;;;;;7.38;4.07;;;;;;;-2.55;100.00;94192.13;2098363;28;20070;-81
2022/02/26 03:42:23;;;;;;;7.20;3.92;;;;;;;-2.41;100.00;94195.41;2089955;28;20029;-83
2022/02/26 03:43:24;;;;;;;9.05;4.40;;;;;;;-2.42;100.00;94191.22;2098393;28;20033;-83
2022/02/26 03:44:25;;;;;;;5.05;3.92;;;;;;;-2.41;100.00;94192.78;2094331;28;20191;-82
2022/02/26 03:45:26;;;;;;;6.55;4.80;;;;;;;-2.44;100.00;94190.00;2090108;28;20040;-82
2022/02/26 03:46:28;;;;;;;7.03;3.67;;;;;;;-2.55;100.00;94194.75;2081669;28;20049;-83
2022/02/26 03:47:28;;;;;;;8.40;3.75;;;;;;;-2.65;100.00;94198.44;2090025;28;20043;-82
2022/02/26 03:48:29;;;;;;;5.80;3.90;;;;;;;-2.67;100.00;94197.97;2090005;28;20086;-82
2022/02/26 03:49:31;;;;;;;6.80;4.00;;;;;;;-2.66;100.00;94199.50;2106471;28;20070;-83
2022/02/26 03:50:31;;;;;;;6.53;3.83;;;;;;;-2.69;100.00;94199.34;2098399;28;20519;-83
2022/02/26 03:51:34;;;;;;;6.13;4.32;;;;;;;-2.67;100.00;94200.59;2106424;28;20043;-82
2022/02/26 03:52:35;;;;;;;5.78;3.63;;;;;;;-2.59;100.00;94209.50;2105902;28;20020;-83
2022/02/26 03:53:36;;;;;;;4.80;4.32;;;;;;;-2.68;100.00;94201.66;2098123;28;20032;-83
2022/02/26 03:54:37;;;;;;;4.97;4.13;;;;;;;-2.58;100.00;94203.22;2090091;28;20021;-82
2022/02/26 03:55:38;;;;;;;5.53;4.15;;;;;;;-2.47;100.00;94207.06;2103925;28;20102;-82
2022/02/26 03:56:47;;;;;;;5.90;3.53;;;;;;;-2.44;100.00;94205.72;2098125;28;20024;-84
2022/02/26 03:57:48;;;;;;;4.43;3.58;;;;;;;-2.43;100.00;94212.47;2099193;28;20051;-82
2022/02/26 03:58:51;;;;;;;5.82;3.90;;;;;;;-2.32;100.00;94211.13;2098287;28;20021;-81
2022/02/26 03:59:51;;;;;;;5.32;3.70;;;;;;;-2.24;100.00;94206.94;2098478;28;20112;-83
2022/02/26 04:00:53;;;;;;;8.45;4.10;;;;;;;-2.30;100.00;94208.94;2098164;28;20024;-83
2022/02/26 04:01:54;;;;;;;6.50;4.18;;;;;;;-2.33;100.00;94212.97;2098252;28;20704;-83
2022/02/26 04:02:55;;;;;;;7.82;4.10;;;;;;;-2.38;100.00;94214.94;2098231;28;20066;-82
2022/02/26 04:03:56;;;;;;;10.38;3.97;;;;;;;-2.43;100.00;94215.09;2106557;28;20074;-82
2022/02/26 04:04:57;;;;;;;5.40;3.83;;;;;;;-2.46;100.00;94219.09;2106455;28;20035;-82
2022/02/26 04:05:57;;;;;;;5.97;3.53;;;;;;;-2.54;100.00;94225.88;2106704;28;20113;-81
2022/02/26 04:06:58;;;;;;;7.00;4.18;;;;;;;-2.49;100.00;94232.81;2098034;28;20054;-82
2022/02/26 04:07:59;;;;;;;4.85;3.90;;;;;;;-2.44;100.00;94227.41;2115006;28;20061;-83
2022/02/26 04:09:01;;;;;;;8.50;4.60;;;;;;;-2.39;100.00;94232.50;2106430;28;20427;-83
2022/02/26 04:10:03;;;;;;;5.63;3.85;;;;;;;-2.35;100.00;94227.44;2106634;28;20671;-83
2022/02/26 04:11:05;;;;;;;8.18;4.85;;;;;;;-2.24;100.00;94231.28;2106205;28;20040;-84
2022/02/26 04:12:06;;;;;;;5.18;4.40;;;;;;;-2.22;100.00;94236.22;2089713;28;20055;-82
2022/02/26 04:13:07;;;;;;;5.30;3.85;;;;;;;-2.12;100.00;94234.06;2098263;28;20107;-83
2022/02/26 04:14:08;;;;;;;7.05;4.30;;;;;;;-2.18;100.00;94227.44;2098087;28;20052;-83
2022/02/26 04:15:09;;;;;;;5.93;4.13;;;;;;;-2.26;100.00;94236.06;2106343;28;20093;-84
2022/02/26 04:16:10;;;;;;;5.78;4.10;;;;;;;-2.30;100.00;94238.50;2098103;28;20067;-82
2022/02/26 04:17:27;;;;;;;4.75;3.90;;;;;;;-2.40;100.00;94238.81;2089601;28;20048;-82
2022/02/26 04:18:28;;;;;;;6.00;3.50;;;;;;;-2.34;100.00;94242.06;2102533;28;20029;-83
2022/02/26 04:19:29;;;;;;;5.68;3.80;;;;;;;-2.25;100.00;94242.84;2106523;28;20381;-82
2022/02/26 04:20:30;;;;;;;4.15;3.42;;;;;;;-2.36;100.00;94244.22;2114859;28;20031;-82
2022/02/26 04:21:31;;;;;;;6.32;3.72;;;;;;;-2.34;100.00;94247.28;2097809;28;20798;-82
2022/02/26 04:22:32;;;;;;;5.53;3.83;;;;;;;-2.39;100.00;94240.34;2098164;28;20024;-82
2022/02/26 04:23:33;;;;;;;4.25;3.67;;;;;;;-2.35;100.00;94245.75;2113514;28;20408;-83
2022/02/26 04:24:34;;;;;;;5.13;4.03;;;;;;;-2.25;100.00;94242.84;2111449;28;20047;-83
2022/02/26 04:25:35;;;;;;;6.10;3.67;;;;;;;-2.24;100.00;94239.13;2106381;28;20024;-82
2022/02/26 04:26:37;;;;;;;4.32;3.53;;;;;;;-2.13;100.00;94243.00;2106293;28;20452;-81
2022/02/26 04:27:38;;;;;;;6.65;3.72;;;;;;;-2.12;100.00;94243.78;2100694;28;20020;-83
2022/02/26 04:28:39;;;;;;;6.25;3.50;;;;;;;-2.15;100.00;94244.38;2106464;28;20027;-82
2022/02/26 04:29:40;;;;;;;7.05;3.60;;;;;;;-2.15;100.00;94241.75;2106268;28;20400;-84
2022/02/26 04:30:41;;;;;;;8.02;3.78;;;;;;;-2.20;100.00;94245.28;2106280;28;20059;-83
2022/02/26 04:31:42;;;;;;;4.15;3.45;;;;;;;-2.20;100.00;94245.28;2114564;27;20085;-83
2022/02/26 04:32:43;;;;;;;5.80;3.67;;;;;;;-2.16;100.00;94254.09;2114688;28;20390;-83
2022/02/26 04:33:44;;;;;;;6.03;3.33;;;;;;;-2.06;100.00;94256.41;2114338;28;20031;-83
2022/02/26 04:34:45;;;;;;;6.00;3.65;;;;;;;-2.14;100.00;94256.41;2113992;28;20047;-82
2022/02/26 04:35:46;;;;;;;6.55;4.05;;;;;;;-2.13;100.00;94253.47;2114838;28;20031;-84
2022/02/26 04:36:47;;;;;;;6.38;4.00;;;;;;;-2.01;100.00;94250.25;2106156;28;20130;-82
2022/02/26 04:37:48;;;;;;;7.25;4.32;;;;;;;-1.88;100.00;94253.81;2106092;28;20027;-84
2022/02/26 04:38:50;;;;;;;6.88;3.78;;;;;;;-1.92;100.00;94250.25;2114664;28;20026;-83
2022/02/26 04:39:51;;;;;;;8.38;3.60;;;;;;;-1.87;100.00;94257.97;2107187;28;20484;-83
2022/02/26 04:40:52;;;;;;;4.80;3.95;;;;;;;-1.91;100.00;94252.56;2106062;28;20446;-83
2022/02/26 04:41:53;;;;;;;7.60;3.58;;;;;;;-1.94;100.00;94255.78;2089527;28;20031;-82
2022/02/26 04:42:54;;;;;;;5.78;3.70;;;;;;;-1.97;100.00;94264.28;2106227;28;20031;-82
2022/02/26 04:43:55;;;;;;;8.43;3.63;;;;;;;-1.99;100.00;94255.94;2106013;28;20020;-84
2022/02/26 04:44:56;;;;;;;6.63;3.97;;;;;;;-2.04;100.00;94262.09;2089866;28;20025;-82
2022/02/26 04:45:58;;;;;;;6.20;3.90;;;;;;;-2.07;100.00;94260.09;2097922;28;20436;-82
2022/02/26 04:47:04;;;;;;;5.97;3.90;;;;;;;-2.11;100.00;94259.19;2106126;28;20416;-82
2022/02/26 04:48:12;;;;;;;5.60;3.50;;;;;;;-2.07;100.00;94254.09;2114607;28;20030;-81
2022/02/26 04:49:13;;;;;;;4.97;3.75;;;;;;;-2.08;100.00;94257.78;2106106;28;20388;-82